Time;durP1;ratioP1;P1;durP2;ratioP2;P2;SDS_P1;SDS_P2;PMS_P1;PMS_P2;Temp;Humidity;BMP_temperature;BMP_pressure;BME280_temperature;BME280_humidity;BME280_pressure;Samples;Min_cycle;Max_cycle;Signal;HPM_P1;HPM_P2
2023/11/10 00:00:17;;;;;;;3.00;1.40;;;10.50;99.90;;;;;;4988847;28;20061;-69
2023/11/10 00:02:43;;;;;;;3.00;1.17;;;10.50;99.90;;;;;;4988363;28;20486;-68
2023/11/10 00:05:09;;;;;;;2.13;1.20;;;10.60;99.90;;;;;;4989074;28;20101;-69
2023/11/10 00:07:35;;;;;;;2.97;1.33;;;10.60;99.90;;;;;;4988942;28;20502;-68
2023/11/10 00:10:02;;;;;;;5.00;1.98;;;10.60;99.90;;;;;;4988687;28;20034;-67
2023/11/10 00:12:28;;;;;;;1.60;1.50;;;10.60;99.90;;;;;;4984907;28;20372;-67
2023/11/10 00:14:54;;;;;;;2.17;1.30;;;10.60;99.90;;;;;;4969180;28;20041;-65
2023/11/10 00:17:20;;;;;;;3.03;1.30;;;10.60;99.90;;;;;;4969170;28;20042;-67
2023/11/10 00:19:46;;;;;;;1.88;1.30;;;10.70;99.90;;;;;;4968931;28;20027;-69
2023/11/10 00:22:11;;;;;;;1.47;1.20;;;10.70;99.90;;;;;;4968961;28;20085;-68
2023/11/10 00:24:39;;;;;;;1.23;1.07;;;10.70;99.90;;;;;;4968718;28;20027;-67
2023/11/10 00:27:07;;;;;;;3.42;1.13;;;10.70;99.90;;;;;;4966692;28;20030;-66
2023/11/10 00:29:33;;;;;;;4.55;1.27;;;10.70;99.90;;;;;;4967831;28;20045;-68
2023/11/10 00:31:59;;;;;;;;;;;10.60;99.90;;;;;;4968722;28;20039;-69
2023/11/10 00:34:24;;;;;;;1.65;1.10;;;10.70;99.90;;;;;;4966849;28;19933;-65
2023/11/10 00:36:50;;;;;;;2.73;1.10;;;10.60;99.90;;;;;;4968503;28;20086;-68
2023/11/10 00:39:19;;;;;;;1.30;1.20;;;10.60;99.90;;;;;;4968484;28;20035;-68
2023/11/10 00:41:45;;;;;;;2.40;1.00;;;10.50;99.90;;;;;;4968183;28;20078;-66
2023/11/10 00:44:11;;;;;;;1.80;1.00;;;10.50;99.90;;;;;;4968229;28;20104;-66
2023/11/10 00:46:37;;;;;;;2.67;1.13;;;10.50;99.90;;;;;;4968513;28;20094;-65
2023/11/10 00:49:03;;;;;;;1.43;1.00;;;10.50;99.90;;;;;;4974935;28;20128;-66
2023/11/10 00:51:28;;;;;;;2.77;0.97;;;10.50;99.90;;;;;;4987730;28;20023;-70
2023/11/10 00:53:54;;;;;;;3.27;0.93;;;10.50;99.90;;;;;;4987430;28;20773;-67
2023/11/10 00:56:20;;;;;;;1.90;1.00;;;10.50;99.90;;;;;;4987925;28;20294;-67
2023/11/10 00:58:45;;;;;;;6.43;1.27;;;10.50;99.90;;;;;;4987340;28;20498;-68
2023/11/10 01:01:11;;;;;;;1.73;1.07;;;10.50;99.90;;;;;;4988296;28;20022;-68
2023/11/10 01:03:37;;;;;;;2.03;1.20;;;10.50;99.90;;;;;;5005346;28;20502;-69
2023/11/10 01:06:02;;;;;;;1.83;1.07;;;10.50;99.90;;;;;;5007309;28;20088;-69
2023/11/10 01:08:28;;;;;;;2.47;1.03;;;10.60;99.90;;;;;;5007325;28;20033;-69
2023/11/10 01:10:53;;;;;;;1.50;0.90;;;10.50;99.90;;;;;;5004246;28;20076;-69
2023/11/10 01:13:19;;;;;;;1.60;0.90;;;10.50;99.90;;;;;;4979790;28;20506;-70
2023/11/10 01:15:45;;;;;;;1.43;0.87;;;10.50;99.90;;;;;;4969057;28;20502;-69
2023/11/10 01:18:10;;;;;;;2.57;0.90;;;10.50;99.90;;;;;;4967938;28;20106;-65
2023/11/10 01:20:36;;;;;;;1.73;0.90;;;10.50;99.90;;;;;;4968283;28;20798;-65
2023/11/10 01:23:02;;;;;;;6.07;1.57;;;10.50;99.90;;;;;;4968298;28;20038;-68
2023/11/10 01:25:28;;;;;;;5.50;1.20;;;10.50;99.90;;;;;;4974816;28;20530;-67
2023/11/10 01:27:53;;;;;;;2.40;1.00;;;10.50;99.90;;;;;;4987983;28;20077;-65
2023/11/10 01:30:20;;;;;;;2.93;1.10;;;10.50;99.90;;;;;;4987898;28;20092;-66
2023/11/10 01:32:45;;;;;;;;;;;10.60;99.90;;;;;;4987885;28;20037;-70
2023/11/10 01:35:11;;;;;;;1.08;0.95;;;10.50;99.90;;;;;;4987961;28;19905;-69
2023/11/10 01:37:37;;;;;;;0.93;0.67;;;10.50;99.90;;;;;;4991661;28;20030;-66
2023/11/10 01:40:04;;;;;;;2.00;1.23;;;10.50;99.90;;;;;;4991465;28;20072;-66
2023/11/10 01:42:30;;;;;;;2.65;1.13;;;10.60;99.90;;;;;;4991133;28;20036;-68
2023/11/10 01:44:55;;;;;;;2.93;1.40;;;10.60;99.90;;;;;;4991371;28;20042;-67
2023/11/10 01:47:21;;;;;;;3.20;0.97;;;10.60;99.90;;;;;;4991131;28;20041;-69
2023/11/10 01:49:47;;;;;;;2.17;1.00;;;10.50;99.90;;;;;;4990848;28;20027;-69
2023/11/10 01:52:14;;;;;;;3.40;1.30;;;10.60;99.90;;;;;;4990928;28;20157;-69
2023/11/10 01:54:40;;;;;;;2.50;1.20;;;10.50;99.90;;;;;;4990934;28;20473;-69
2023/11/10 01:57:06;;;;;;;4.97;1.08;;;10.50;99.90;;;;;;4990824;28;20026;-69
2023/11/10 01:59:35;;;;;;;2.13;1.00;;;10.50;99.90;;;;;;4990513;28;20069;-68
2023/11/10 02:02:03;;;;;;;3.17;1.00;;;10.50;99.90;;;;;;4990772;28;20018;-69
2023/11/10 02:04:30;;;;;;;2.45;0.88;;;10.50;99.90;;;;;;4990811;28;20038;-69
2023/11/10 02:06:58;;;;;;;2.40;1.00;;;10.50;99.90;;;;;;4990686;28;20022;-66
2023/11/10 02:09:24;;;;;;;4.70;1.20;;;10.50;99.90;;;;;;4990780;28;20137;-68
2023/11/10 02:11:49;;;;;;;1.27;1.00;;;10.50;99.90;;;;;;4990585;28;20502;-67
2023/11/10 02:14:15;;;;;;;1.63;1.30;;;10.40;99.90;;;;;;4990378;28;20042;-66
2023/11/10 02:16:41;;;;;;;7.00;1.60;;;10.40;99.90;;;;;;4973037;28;20080;-67
2023/11/10 02:19:13;;;;;;;4.00;1.20;;;10.40;99.90;;;;;;4990816;28;20026;-65
2023/11/10 02:21:39;;;;;;;4.20;1.30;;;10.40;99.90;;;;;;4991146;28;20825;-65
2023/11/10 02:24:07;;;;;;;3.60;1.20;;;10.40;99.90;;;;;;4990692;28;20035;-64
2023/11/10 02:26:33;;;;;;;2.72;1.10;;;10.30;99.90;;;;;;4990623;28;20406;-65
2023/11/10 02:28:59;;;;;;;7.10;1.50;;;10.30;99.90;;;;;;4990406;28;20046;-65
2023/11/10 02:31:25;;;;;;;4.57;1.35;;;10.30;99.90;;;;;;4972046;28;20490;-65
2023/11/10 02:33:53;;;;;;;3.55;1.23;;;10.30;99.90;;;;;;4989823;28;20033;-67
2023/11/10 02:36:20;;;;;;;5.07;1.00;;;10.30;99.90;;;;;;4989835;28;20037;-69
2023/11/10 02:38:46;;;;;;;3.65;1.45;;;10.30;99.90;;;;;;4989280;28;20142;-69
2023/11/10 02:41:11;;;;;;;4.10;1.30;;;10.20;99.90;;;;;;4989097;28;20026;-67
2023/11/10 02:43:37;;;;;;;2.27;1.37;;;10.30;99.90;;;;;;4989841;28;20046;-69
2023/11/10 02:46:03;;;;;;;4.90;1.23;;;10.30;99.90;;;;;;4990038;28;20030;-65
2023/11/10 02:48:29;;;;;;;2.37;0.90;;;10.30;99.90;;;;;;4989710;28;20042;-69
2023/11/10 02:50:55;;;;;;;1.77;1.25;;;10.30;99.90;;;;;;4989886;28;20397;-69
2023/11/10 02:53:21;;;;;;;4.82;1.20;;;10.30;99.90;;;;;;4989679;28;20041;-69
2023/11/10 02:55:47;;;;;;;9.40;1.30;;;10.30;99.90;;;;;;4989844;28;20030;-66
2023/11/10 02:58:12;;;;;;;2.20;1.02;;;10.40;99.90;;;;;;4989717;28;20057;-68
2023/11/10 03:00:38;;;;;;;5.57;1.00;;;10.30;99.90;;;;;;4989445;28;20117;-68
2023/11/10 03:03:06;;;;;;;4.07;1.33;;;10.30;99.90;;;;;;5006077;28;20084;-69
2023/11/10 03:05:32;;;;;;;4.93;1.10;;;10.30;99.90;;;;;;5009392;28;20195;-67
2023/11/10 03:07:58;;;;;;;4.50;1.20;;;10.20;99.90;;;;;;5009287;28;20042;-69
2023/11/10 03:10:23;;;;;;;1.40;1.27;;;10.20;99.90;;;;;;5008866;28;20032;-68
2023/11/10 03:12:50;;;;;;;4.73;2.23;;;10.20;99.90;;;;;;5008971;28;20030;-68
2023/11/10 03:15:17;;;;;;;3.55;1.33;;;10.10;99.90;;;;;;5008697;28;20026;-66
2023/11/10 03:17:43;;;;;;;1.92;0.80;;;10.00;99.90;;;;;;5008704;28;20409;-70
2023/11/10 03:20:09;;;;;;;4.75;1.40;;;10.10;99.90;;;;;;5008734;28;20445;-68
2023/11/10 03:22:35;;;;;;;;;;;10.10;99.90;;;;;;5009140;28;20044;-71
2023/11/10 03:25:02;;;;;;;1.67;1.05;;;10.10;99.90;;;;;;5008491;28;20004;-67
2023/11/10 03:27:27;;;;;;;1.73;1.00;;;10.20;99.90;;;;;;4992899;28;20095;-67
2023/11/10 03:29:53;;;;;;;3.23;1.00;;;10.10;99.90;;;;;;4989371;28;20034;-66
2023/11/10 03:32:20;;;;;;;5.03;1.47;;;10.10;99.90;;;;;;4989192;28;20117;-67
2023/11/10 03:34:45;;;;;;;2.95;1.48;;;10.00;99.90;;;;;;4989236;28;20053;-67
2023/11/10 03:37:12;;;;;;;1.50;1.03;;;10.00;99.90;;;;;;4989176;28;20058;-69
2023/11/10 03:39:38;;;;;;;1.73;1.30;;;10.00;99.90;;;;;;4989188;28;20085;-66
2023/11/10 03:42:04;;;;;;;;;;;10.00;99.90;;;;;;4989750;28;20813;-68
2023/11/10 03:44:30;;;;;;;4.32;1.25;;;10.00;99.90;;;;;;4989298;28;19909;-70
2023/11/10 03:46:56;;;;;;;4.23;1.40;;;10.10;99.90;;;;;;4988741;28;20026;-67
2023/11/10 03:49:23;;;;;;;2.47;1.20;;;10.10;99.90;;;;;;4988578;28;20348;-65
2023/11/10 03:51:50;;;;;;;6.65;1.38;;;10.10;99.90;;;;;;4988094;28;20074;-66
2023/11/10 03:54:16;;;;;;;;;;;10.10;99.90;;;;;;4988876;28;20034;-67
2023/11/10 03:56:41;;;;;;;2.50;1.30;;;10.10;99.90;;;;;;4988371;28;19909;-69
2023/11/10 03:59:07;;;;;;;2.53;1.17;;;10.20;99.90;;;;;;4970550;28;20037;-66
2023/11/10 04:01:33;;;;;;;2.23;1.10;;;10.10;99.90;;;;;;4988220;28;20034;-66
2023/11/10 04:04:00;;;;;;;6.40;1.58;;;10.20;99.90;;;;;;4988247;28;20061;-66
2023/11/10 04:06:25;;;;;;;6.45;1.48;;;10.10;99.90;;;;;;4988363;28;20030;-66
2023/11/10 04:08:51;;;;;;;3.53;1.80;;;10.20;99.90;;;;;;4988418;28;20044;-67
2023/11/10 04:11:17;;;;;;;4.67;1.63;;;10.10;99.90;;;;;;4988728;28;20125;-65
2023/11/10 04:13:43;;;;;;;3.20;1.30;;;10.10;99.90;;;;;;4988245;28;20549;-69
2023/11/10 04:16:20;;;;;;;7.55;1.77;;;10.10;99.90;;;;;;4988749;28;20545;-67
2023/11/10 04:18:53;;;;;;;3.90;1.80;;;10.20;99.90;;;;;;4988201;28;20037;-67
2023/11/10 04:21:23;;;;;;;2.33;1.50;;;10.20;99.90;;;;;;4988230;28;20032;-67
2023/11/10 04:23:49;;;;;;;1.75;1.42;;;10.30;99.90;;;;;;4988052;28;20585;-67
2023/11/10 04:26:15;;;;;;;6.40;1.73;;;10.20;99.90;;;;;;4988523;28;20018;-66
2023/11/10 04:28:41;;;;;;;6.60;2.10;;;10.20;99.90;;;;;;4988029;28;20305;-66
2023/11/10 04:31:09;;;;;;;3.22;1.95;;;10.20;99.90;;;;;;4988771;28;20101;-64
2023/11/10 04:33:36;;;;;;;3.53;1.98;;;10.30;99.90;;;;;;4988195;28;20502;-65
2023/11/10 04:36:04;;;;;;;4.85;2.20;;;10.20;99.90;;;;;;4988388;28;20478;-65
2023/11/10 04:38:30;;;;;;;3.67;1.83;;;10.20;99.90;;;;;;4988039;28;20034;-67
2023/11/10 04:40:55;;;;;;;3.47;2.00;;;10.20;99.90;;;;;;4987503;28;20025;-67
2023/11/10 04:43:21;;;;;;;5.20;2.63;;;10.20;99.90;;;;;;4987800;28;20026;-67
2023/11/10 04:45:47;;;;;;;4.80;1.80;;;10.20;99.90;;;;;;4987602;28;20450;-67
2023/11/10 04:48:12;;;;;;;2.57;1.90;;;10.20;99.90;;;;;;4987264;28;20045;-66
2023/11/10 04:50:38;;;;;;;3.33;2.07;;;10.20;99.90;;;;;;4988131;28;20054;-65
2023/11/10 04:53:04;;;;;;;5.23;1.97;;;10.20;99.90;;;;;;4988009;28;20033;-68
2023/11/10 04:55:30;;;;;;;3.10;2.10;;;10.20;99.90;;;;;;4995313;28;20373;-66
2023/11/10 04:57:55;;;;;;;5.10;2.08;;;10.20;99.90;;;;;;5007463;28;20033;-66
2023/11/10 05:00:23;;;;;;;6.63;1.70;;;10.20;99.90;;;;;;5007334;28;20536;-67
2023/11/10 05:02:51;;;;;;;1.80;1.60;;;10.20;99.90;;;;;;5007423;28;20539;-67
2023/11/10 05:05:18;;;;;;;7.15;2.10;;;10.20;99.90;;;;;;4979307;28;20030;-68
2023/11/10 05:07:44;;;;;;;9.80;2.00;;;10.20;99.90;;;;;;4980833;28;20065;-67
2023/11/10 05:10:10;;;;;;;4.80;2.17;;;10.20;99.90;;;;;;4988973;28;20030;-65
2023/11/10 05:12:36;;;;;;;5.32;2.35;;;10.20;99.90;;;;;;4986200;28;20624;-69
2023/11/10 05:15:06;;;;;;;6.88;2.30;;;10.10;99.90;;;;;;4972407;28;20027;-66
2023/11/10 05:17:36;;;;;;;9.30;2.50;;;10.10;99.90;;;;;;4972359;28;20035;-69
2023/11/10 05:20:03;;;;;;;5.78;2.28;;;10.10;99.90;;;;;;4972064;28;20114;-69
2023/11/10 05:22:32;;;;;;;5.63;2.25;;;10.10;99.90;;;;;;4975687;28;20506;-70
2023/11/10 05:25:04;;;;;;;7.05;2.15;;;10.10;99.90;;;;;;4991349;28;20018;-69
2023/11/10 05:27:30;;;;;;;7.78;2.03;;;10.10;99.90;;;;;;4991229;28;20042;-69
2023/11/10 05:29:56;;;;;;;3.92;2.10;;;10.10;99.90;;;;;;4991024;28;20030;-66
2023/11/10 05:32:21;;;;;;;15.23;2.38;;;10.10;99.90;;;;;;4991495;28;20073;-66
2023/11/10 05:34:50;;;;;;;3.50;1.83;;;10.20;99.90;;;;;;4991093;28;20069;-66
2023/11/10 05:37:19;;;;;;;2.78;1.90;;;10.20;99.90;;;;;;4990614;28;20034;-66
2023/11/10 05:39:46;;;;;;;5.25;1.90;;;10.20;99.90;;;;;;4991285;28;20553;-65
2023/11/10 05:42:13;;;;;;;5.88;2.00;;;10.10;99.90;;;;;;4991055;28;20031;-66
2023/11/10 05:44:38;;;;;;;3.22;1.80;;;10.10;99.90;;;;;;4991503;28;20018;-67
2023/11/10 05:47:04;;;;;;;4.20;2.53;;;10.10;99.90;;;;;;4987199;28;20652;-66
2023/11/10 05:49:30;;;;;;;7.30;2.77;;;10.10;99.90;;;;;;4981524;28;20129;-65
2023/11/10 05:51:55;;;;;;;4.05;2.28;;;10.10;99.90;;;;;;4983200;28;20031;-67
2023/11/10 05:54:21;;;;;;;6.30;2.87;;;10.10;99.90;;;;;;4977040;28;20498;-67
2023/11/10 05:56:46;;;;;;;5.20;2.50;;;10.00;99.90;;;;;;4975823;28;20026;-65
2023/11/10 05:59:12;;;;;;;6.33;2.37;;;10.00;99.90;;;;;;4981892;28;20049;-66
2023/11/10 06:01:38;;;;;;;3.47;2.37;;;10.00;99.90;;;;;;4979946;28;20022;-67
2023/11/10 06:04:04;;;;;;;5.77;3.13;;;10.00;99.90;;;;;;4979685;28;20054;-67
2023/11/10 06:06:30;;;;;;;8.00;2.40;;;10.00;99.90;;;;;;4975005;28;20039;-67
2023/11/10 06:08:55;;;;;;;4.00;2.37;;;9.90;99.90;;;;;;4981524;28;20046;-68
2023/11/10 06:11:23;;;;;;;4.47;2.33;;;9.90;99.90;;;;;;4976950;28;20284;-70
2023/11/10 06:13:49;;;;;;;3.08;2.40;;;9.90;99.90;;;;;;4979698;28;20027;-66
2023/11/10 06:16:15;;;;;;;5.55;2.80;;;9.90;99.90;;;;;;4978788;28;20138;-68
2023/11/10 06:18:41;;;;;;;4.10;2.47;;;9.90;99.90;;;;;;4979217;28;20031;-68
2023/11/10 06:21:09;;;;;;;6.27;2.57;;;9.90;99.90;;;;;;4981640;28;20501;-68
2023/11/10 06:23:34;;;;;;;3.70;2.47;;;10.00;99.90;;;;;;4976515;28;20097;-65
2023/11/10 06:26:00;;;;;;;4.13;2.30;;;9.90;99.90;;;;;;4983049;28;20034;-65
2023/11/10 06:28:26;;;;;;;4.97;2.45;;;10.00;99.90;;;;;;4971751;28;20130;-66
2023/11/10 06:30:52;;;;;;;5.43;2.80;;;10.00;99.90;;;;;;4979900;28;20410;-67
2023/11/10 06:33:18;;;;;;;3.87;2.20;;;10.00;99.90;;;;;;4980228;28;20031;-66
2023/11/10 06:35:43;;;;;;;4.38;2.22;;;9.90;99.90;;;;;;4981002;28;20458;-65
2023/11/10 06:38:09;;;;;;;4.27;2.70;;;10.00;99.90;;;;;;4981424;28;20062;-65
2023/11/10 06:40:34;;;;;;;4.33;2.63;;;9.90;99.90;;;;;;4978595;28;20046;-68
2023/11/10 06:43:00;;;;;;;4.82;2.33;;;9.90;99.90;;;;;;4979289;28;20064;-66
2023/11/10 06:45:29;;;;;;;5.07;2.50;;;9.90;99.90;;;;;;4973519;28;20035;-65
2023/11/10 06:47:54;;;;;;;3.95;2.33;;;9.90;99.90;;;;;;4980820;28;20034;-68
2023/11/10 06:50:20;;;;;;;6.67;2.40;;;9.90;99.90;;;;;;4978741;28;20080;-65
2023/11/10 06:52:46;;;;;;;4.50;2.90;;;9.90;99.90;;;;;;4984815;28;20104;-68
2023/11/10 06:55:15;;;;;;;11.83;2.90;;;9.90;99.90;;;;;;4986802;28;20071;-67
2023/11/10 06:57:42;;;;;;;4.57;2.70;;;9.90;99.90;;;;;;4974523;28;20038;-65
2023/11/10 07:00:11;;;;;;;9.98;2.47;;;10.00;99.90;;;;;;4981086;28;20026;-67
2023/11/10 07:02:37;;;;;;;6.50;3.20;;;10.00;99.90;;;;;;4979623;28;20050;-66
2023/11/10 07:05:03;;;;;;;3.38;2.28;;;10.00;99.90;;;;;;4975181;28;20030;-65
2023/11/10 07:07:30;;;;;;;6.53;2.67;;;10.00;99.90;;;;;;4979877;28;20796;-66
2023/11/10 07:09:59;;;;;;;7.47;2.92;;;10.00;99.90;;;;;;4976331;28;20505;-67
2023/11/10 07:12:25;;;;;;;6.63;3.10;;;10.00;99.90;;;;;;4984170;28;20042;-65
2023/11/10 07:14:52;;;;;;;4.28;2.67;;;10.00;99.90;;;;;;4987401;28;20026;-65
2023/11/10 07:17:18;;;;;;;7.13;2.90;;;10.00;99.90;;;;;;4982330;28;20045;-65
2023/11/10 07:19:44;;;;;;;4.28;2.88;;;10.10;99.90;;;;;;4978445;28;20039;-68
2023/11/10 07:22:10;;;;;;;5.40;3.13;;;10.00;99.90;;;;;;4982361;28;20034;-69
2023/11/10 07:24:36;;;;;;;4.25;2.92;;;10.10;99.90;;;;;;4980562;28;20026;-67
2023/11/10 07:27:06;;;;;;;13.40;7.33;;;10.10;99.90;;;;;;4980720;28;20042;-66
2023/11/10 07:29:33;;;;;;;14.23;7.75;;;10.10;99.90;;;;;;4980040;28;20497;-69
2023/11/10 07:32:01;;;;;;;8.00;3.85;;;10.20;99.90;;;;;;4979176;28;20038;-69
2023/11/10 07:34:26;;;;;;;6.15;3.95;;;10.20;99.90;;;;;;4978651;28;20042;-68
2023/11/10 07:36:53;;;;;;;9.60;4.40;;;10.30;99.90;;;;;;4989011;28;20453;-68
2023/11/10 07:39:20;;;;;;;8.75;4.68;;;10.20;99.90;;;;;;4984584;28;20536;-66
2023/11/10 07:41:45;;;;;;;5.28;3.10;;;10.30;99.90;;;;;;4991091;28;20026;-66
2023/11/10 07:44:12;;;;;;;11.83;5.53;;;10.30;99.90;;;;;;4990868;28;20027;-67
2023/11/10 07:46:38;;;;;;;6.30;3.15;;;10.30;99.90;;;;;;4987981;28;20607;-66
2023/11/10 07:49:04;;;;;;;8.13;3.00;;;10.30;99.90;;;;;;4989236;28;20070;-66
2023/11/10 07:51:29;;;;;;;7.40;3.37;;;10.40;99.90;;;;;;4982337;28;20759;-66
2023/11/10 07:53:55;;;;;;;8.43;4.63;;;10.60;99.90;;;;;;4986958;28;20273;-67
2023/11/10 07:56:20;;;;;;;8.73;4.33;;;10.80;99.90;;;;;;4984915;28;20019;-66
2023/11/10 07:58:46;;;;;;;9.47;3.93;;;11.80;99.90;;;;;;4983123;28;20034;-66
2023/11/10 08:01:15;;;;;;;9.03;2.73;;;15.60;99.90;;;;;;4974860;28;20030;-66
2023/11/10 08:03:42;;;;;;;8.40;3.35;;;16.00;95.10;;;;;;4979197;28;20329;-66
2023/11/10 08:06:11;;;;;;;6.93;3.20;;;13.80;99.90;;;;;;4981415;28;20026;-68
2023/11/10 08:08:39;;;;;;;9.90;4.45;;;12.20;99.90;;;;;;4979258;28;20098;-65
2023/11/10 08:11:05;;;;;;;6.10;2.83;;;11.60;99.90;;;;;;4974712;28;20042;-66
2023/11/10 08:13:34;;;;;;;7.97;2.20;;;11.30;99.90;;;;;;4976690;28;20509;-66
2023/11/10 08:16:00;;;;;;;4.95;1.92;;;11.10;99.90;;;;;;4978793;28;20027;-65
2023/11/10 08:18:26;;;;;;;;;;;11.00;99.90;;;;;;4975637;28;20034;-65
2023/11/10 08:20:52;;;;;;;12.63;5.95;;;11.00;99.90;;;;;;4983423;28;20377;-65
2023/11/10 08:23:18;;;;;;;10.87;6.50;;;10.90;99.90;;;;;;4977501;28;20023;-66
2023/11/10 08:25:45;;;;;;;29.05;15.73;;;10.90;99.90;;;;;;4980095;28;20026;-66
2023/11/10 08:28:11;;;;;;;8.38;5.03;;;10.80;99.90;;;;;;4986008;28;20030;-64
2023/11/10 08:30:38;;;;;;;18.25;8.20;;;10.80;99.90;;;;;;4978575;28;20190;-66
2023/11/10 08:33:04;;;;;;;15.40;7.97;;;10.80;99.90;;;;;;4981389;28;20045;-66
2023/11/10 08:35:29;;;;;;;7.60;4.20;;;10.80;99.90;;;;;;4980226;28;20800;-66
2023/11/10 08:37:55;;;;;;;18.58;8.57;;;10.80;99.90;;;;;;4981978;28;20034;-65
2023/11/10 08:40:21;;;;;;;7.47;3.73;;;10.80;99.90;;;;;;4970047;28;20098;-66
2023/11/10 08:42:47;;;;;;;9.98;3.50;;;10.70;99.90;;;;;;4987404;28;20097;-66
2023/11/10 08:45:14;;;;;;;23.23;9.57;;;10.70;99.90;;;;;;4977052;28;20109;-66
2023/11/10 08:47:41;;;;;;;38.10;16.00;;;10.80;99.90;;;;;;4986595;28;20042;-67
2023/11/10 08:50:11;;;;;;;34.45;13.68;;;10.90;99.90;;;;;;4975981;28;20034;-66
2023/11/10 08:52:40;;;;;;;9.45;4.97;;;10.90;99.90;;;;;;4990895;28;20037;-64
2023/11/10 08:55:07;;;;;;;7.85;4.85;;;11.00;99.90;;;;;;4981935;28;20038;-70
2023/11/10 08:57:32;;;;;;;;;;;11.00;99.90;;;;;;4985231;28;20023;-68
2023/11/10 09:00:00;;;;;;;5.03;3.15;;;11.00;99.90;;;;;;4972260;28;19936;-68
2023/11/10 09:02:25;;;;;;;5.18;2.08;;;10.80;99.90;;;;;;4985561;28;20037;-67
2023/11/10 09:04:51;;;;;;;2.30;1.13;;;10.60;99.90;;;;;;4984635;28;20907;-65
2023/11/10 09:07:16;;;;;;;3.80;1.37;;;10.70;99.90;;;;;;4996763;28;20026;-65
2023/11/10 09:09:43;;;;;;;0.83;0.70;;;10.70;99.90;;;;;;4978039;28;20045;-68
2023/11/10 09:12:09;;;;;;;4.38;1.35;;;10.70;99.90;;;;;;4976376;28;20469;-65
2023/11/10 09:14:34;;;;;;;1.17;0.70;;;10.60;99.90;;;;;;4979948;28;20042;-67
2023/11/10 09:17:00;;;;;;;0.50;0.50;;;10.60;99.90;;;;;;4982764;28;20034;-66
2023/11/10 09:19:25;;;;;;;1.03;0.73;;;10.70;99.90;;;;;;4976824;28;20736;-67
2023/11/10 09:21:51;;;;;;;4.20;2.00;;;11.00;99.90;;;;;;4983064;28;20034;-68
2023/11/10 09:24:16;;;;;;;5.00;1.50;;;11.10;99.90;;;;;;4987622;28;20053;-65
2023/11/10 09:26:43;;;;;;;2.73;1.30;;;11.20;99.90;;;;;;4975531;28;20105;-67
2023/11/10 09:29:09;;;;;;;1.50;1.17;;;11.60;99.90;;;;;;4978539;28;20048;-68
2023/11/10 09:31:34;;;;;;;5.40;1.27;;;11.90;99.90;;;;;;4978860;28;20081;-69
2023/11/10 09:34:00;;;;;;;2.43;1.00;;;11.40;99.90;;;;;;4974133;28;20062;-66
2023/11/10 09:36:26;;;;;;;3.17;1.40;;;11.00;99.90;;;;;;4975869;28;20090;-68
2023/11/10 09:38:52;;;;;;;4.13;1.10;;;10.90;99.90;;;;;;4981764;28;20735;-69
2023/11/10 09:41:21;;;;;;;2.00;1.00;;;10.80;99.90;;;;;;4976896;28;20383;-65
2023/11/10 09:43:48;;;;;;;4.13;1.05;;;10.50;99.90;;;;;;4981483;28;20089;-69
2023/11/10 09:46:16;;;;;;;4.07;1.30;;;10.60;99.90;;;;;;4973992;28;20491;-69
2023/11/10 09:48:43;;;;;;;1.42;1.00;;;10.80;99.90;;;;;;4983787;28;20145;-68
2023/11/10 09:51:09;;;;;;;;;;;11.40;99.90;;;;;;4983946;28;20089;-68
2023/11/10 09:53:38;;;;;;;0.68;0.68;;;11.70;99.90;;;;;;4981418;28;20297;-66
2023/11/10 09:56:04;;;;;;;1.08;0.90;;;12.20;99.90;;;;;;4979085;28;20058;-68
2023/11/10 09:58:31;;;;;;;3.70;0.95;;;12.80;99.90;;;;;;4982632;28;20038;-69
2023/11/10 10:00:57;;;;;;;1.60;1.17;;;13.40;98.80;;;;;;4990648;28;20558;-68
2023/11/10 10:03:23;;;;;;;1.73;1.05;;;12.50;99.90;;;;;;4990917;28;20507;-68
2023/11/10 10:05:50;;;;;;;1.43;1.03;;;11.70;99.90;;;;;;4990555;28;20026;-66
2023/11/10 10:08:19;;;;;;;1.38;0.80;;;11.50;99.90;;;;;;4989616;28;20051;-66
2023/11/10 10:10:47;;;;;;;0.60;0.60;;;11.50;99.90;;;;;;4986744;28;20050;-68
2023/11/10 10:13:13;;;;;;;0.50;0.50;;;11.50;99.90;;;;;;4982607;28;20026;-66
2023/11/10 10:15:39;;;;;;;1.57;0.90;;;11.20;99.90;;;;;;4990235;28;20033;-67
2023/11/10 10:18:06;;;;;;;1.70;0.90;;;11.10;99.90;;;;;;4988830;28;20109;-66
2023/11/10 10:20:32;;;;;;;1.58;1.02;;;10.90;99.90;;;;;;4988567;28;20116;-67
2023/11/10 10:22:58;;;;;;;2.27;1.00;;;10.80;99.90;;;;;;4998106;28;20549;-66
2023/11/10 10:25:23;;;;;;;1.85;0.88;;;10.90;99.90;;;;;;4984039;28;20031;-65
2023/11/10 10:27:50;;;;;;;1.83;0.97;;;10.90;99.90;;;;;;4988867;28;20755;-66
2023/11/10 10:30:18;;;;;;;1.27;1.00;;;10.90;99.90;;;;;;4985353;28;20026;-69
2023/11/10 10:32:43;;;;;;;2.05;0.80;;;10.90;99.90;;;;;;4988430;28;20041;-67
2023/11/10 10:35:11;;;;;;;2.28;0.90;;;10.80;99.90;;;;;;4987810;28;20030;-66
2023/11/10 10:37:40;;;;;;;1.23;1.00;;;10.80;99.90;;;;;;4989403;28;20104;-67
2023/11/10 10:40:13;;;;;;;0.93;0.80;;;10.90;99.90;;;;;;4981358;28;20578;-67
2023/11/10 10:42:42;;;;;;;4.28;1.00;;;10.90;99.90;;;;;;4962313;28;20410;-68
2023/11/10 10:45:12;;;;;;;1.50;1.15;;;11.00;99.90;;;;;;4979471;28;20518;-69
2023/11/10 10:47:40;;;;;;;1.10;0.88;;;11.10;99.90;;;;;;4981777;28;20034;-67
2023/11/10 10:50:10;;;;;;;2.03;0.90;;;11.10;99.90;;;;;;4988511;28;20136;-65
2023/11/10 10:52:36;;;;;;;4.90;0.88;;;11.20;99.90;;;;;;4987036;28;20109;-68
2023/11/10 10:55:06;;;;;;;1.95;0.95;;;11.20;99.90;;;;;;4974637;28;20102;-66
2023/11/10 10:57:33;;;;;;;8.75;1.27;;;11.10;99.90;;;;;;4987414;28;20030;-66
2023/11/10 11:00:00;;;;;;;2.75;0.93;;;11.10;99.90;;;;;;4986475;28;20487;-67
2023/11/10 11:02:27;;;;;;;2.40;1.10;;;11.10;99.90;;;;;;4986181;28;20031;-66
2023/11/10 11:05:16;;;;;;;4.20;1.23;;;11.00;99.90;;;;;;4980710;28;20034;-66
2023/11/10 11:08:01;;;;;;;3.17;1.23;;;11.20;99.90;;;;;;4984311;28;20037;-67
2023/11/10 11:10:46;;;;;;;2.38;0.90;;;11.60;99.90;;;;;;4983034;28;20109;-69
2023/11/10 11:13:44;;;;;;;1.88;1.15;;;11.80;98.50;;;;;;4985864;28;20022;-67
2023/11/10 11:17:08;;;;;;;0.90;0.70;;;12.00;97.80;;;;;;4975895;28;20163;-68
2023/11/10 11:19:36;;;;;;;3.67;1.40;;;12.20;97.20;;;;;;4928416;29;20902;-68
2023/11/10 11:22:02;;;;;;;4.22;1.15;;;12.30;99.30;;;;;;4972882;28;20086;-67
2023/11/10 11:24:32;;;;;;;1.73;1.30;;;12.10;99.90;;;;;;5001140;28;20030;-69
2023/11/10 11:27:03;;;;;;;3.03;1.13;;;12.00;99.90;;;;;;4986414;28;20888;-68
2023/11/10 11:29:39;;;;;;;3.55;0.90;;;11.90;99.90;;;;;;4982016;28;20180;-69
2023/11/10 11:32:19;;;;;;;1.70;0.80;;;11.90;98.50;;;;;;4986462;28;20026;-70
2023/11/10 11:34:55;;;;;;;2.45;1.00;;;11.80;98.90;;;;;;4987647;28;20582;-66
2023/11/10 11:37:28;;;;;;;2.45;0.70;;;12.00;97.50;;;;;;4987055;28;20042;-67
2023/11/10 11:39:53;;;;;;;3.97;1.00;;;12.30;99.90;;;;;;4987313;28;20046;-65
2023/11/10 11:42:23;;;;;;;3.03;1.40;;;12.40;96.10;;;;;;4978593;28;20398;-66
2023/11/10 11:44:58;;;;;;;4.57;1.08;;;12.50;93.60;;;;;;4994571;28;20034;-65
2023/11/10 11:47:24;;;;;;;1.35;0.95;;;12.80;97.40;;;;;;4981572;28;20027;-66
2023/11/10 11:49:51;;;;;;;3.77;1.00;;;12.90;94.50;;;;;;4982725;28;20053;-67
2023/11/10 11:52:17;;;;;;;2.25;1.23;;;12.90;94.10;;;;;;4961200;28;20023;-66
2023/11/10 11:54:42;;;;;;;2.87;1.20;;;12.60;93.80;;;;;;4980014;28;20507;-66
2023/11/10 11:57:08;;;;;;;1.53;0.93;;;12.40;95.30;;;;;;4975710;28;20026;-66
2023/11/10 11:59:35;;;;;;;4.60;2.37;;;12.40;95.70;;;;;;4989239;28;20848;-66
2023/11/10 12:02:00;;;;;;;;;;;12.40;98.90;;;;;;4982233;28;20035;-66
2023/11/10 12:04:26;;;;;;;3.80;1.38;;;12.40;97.50;;;;;;4979514;28;19917;-66
2023/11/10 12:06:52;;;;;;;6.40;1.20;;;12.50;96.90;;;;;;4974996;28;20018;-66
2023/11/10 12:09:18;;;;;;;1.63;1.30;;;12.60;97.10;;;;;;4978255;28;20399;-65
2023/11/10 12:11:45;;;;;;;4.43;1.13;;;12.50;96.40;;;;;;4979922;28;20022;-66
2023/11/10 12:14:12;;;;;;;5.13;1.25;;;12.30;98.40;;;;;;4964946;28;20042;-66
2023/11/10 12:16:39;;;;;;;9.00;1.48;;;12.10;99.90;;;;;;4984502;28;20045;-67
2023/11/10 12:19:06;;;;;;;7.03;1.38;;;11.90;99.90;;;;;;4981796;28;20053;-66
2023/11/10 12:21:32;;;;;;;;;;;11.70;99.90;;;;;;4111771;28;10000622;-67
2023/11/10 12:24:06;;;;;;;2.13;1.30;;;11.80;98.80;;;;;;4985638;28;19918;-68
2023/11/10 12:26:40;;;;;;;1.50;0.80;;;11.80;99.90;;;;;;4980318;28;20758;-68
2023/11/10 12:29:10;;;;;;;3.67;1.00;;;12.10;99.00;;;;;;4979833;28;20414;-66
2023/11/10 12:31:37;;;;;;;2.47;0.90;;;12.30;98.80;;;;;;4975959;28;20102;-66
2023/11/10 12:34:06;;;;;;;1.05;0.88;;;12.20;96.20;;;;;;4106183;28;10000979;-66
2023/11/10 12:36:35;;;;;;;4.07;0.93;;;12.10;97.00;;;;;;4975340;28;20035;-69
2023/11/10 12:39:17;;;;;;;2.58;1.02;;;11.90;97.50;;;;;;4980899;28;20027;-66
2023/11/10 12:41:47;;;;;;;2.63;0.88;;;11.80;98.70;;;;;;4973642;28;20041;-66
2023/11/10 12:44:21;;;;;;;3.49;0.71;;;11.80;99.90;;;;;;4253337;28;10001623;-68
2023/11/10 12:46:54;;;;;;;7.68;1.15;;;11.90;99.90;;;;;;4988306;28;20054;-68